DLH4240 EKCH-EBCI
Flight info
| Callsign | DLH4240 |
|---|---|
| Flight time | 1h 17m |
| Altitude | 40000 |
| Route | LANGO P999 ALS N872 PAM/N0455F390 N872 NIK |
| Aircraft | A333/H-SDE3GHIJ2J3J5M1RVWXY/LB2D1 |
Departure
| Time | 2026-05-05 07:27 |
|---|---|
| Airport | Copenhagen Kastrup Airport (EKCH) |
Arrival
| Time | 2026-05-05 08:44 |
|---|---|
| Airport | Brussels South Charleroi Airport (EBCI) |
| Time | Latitude | Longitude | Altitude | Speed | Heading |
|---|---|---|---|---|---|
| 2026-05-05 07:04 | 55.62693 | 12.64157 | 23 ft | 0 kts | 33° |
| 2026-05-05 07:18 | 55.62684 | 12.64146 | 23 ft | 2 kts | 33° |
| 2026-05-05 07:19 | 55.62671 | 12.64132 | 23 ft | 2 kts | 33° |
| 2026-05-05 07:19 | 55.62658 | 12.64117 | 22 ft | 2 kts | 44° |
| 2026-05-05 07:19 | 55.62650 | 12.64095 | 22 ft | 2 kts | 77° |
| 2026-05-05 07:19 | 55.62649 | 12.64069 | 21 ft | 2 kts | 104° |
| 2026-05-05 07:20 | 55.62653 | 12.64052 | 21 ft | 0 kts | 124° |
| 2026-05-05 07:20 | 55.62656 | 12.64044 | 21 ft | 0 kts | 124° |
| 2026-05-05 07:20 | 55.62655 | 12.64044 | 21 ft | 0 kts | 124° |
| 2026-05-05 07:21 | 55.62653 | 12.64051 | 21 ft | 6 kts | 124° |
| 2026-05-05 07:21 | 55.62589 | 12.64219 | 22 ft | 24 kts | 123° |
| 2026-05-05 07:22 | 55.62483 | 12.64462 | 22 ft | 13 kts | 161° |
| 2026-05-05 07:22 | 55.62372 | 12.64442 | 20 ft | 5 kts | 195° |
| 2026-05-05 07:22 | 55.62368 | 12.64440 | 20 ft | 0 kts | 195° |
| 2026-05-05 07:22 | 55.62329 | 12.64422 | 20 ft | 13 kts | 195° |
| 2026-05-05 07:23 | 55.62199 | 12.64334 | 20 ft | 26 kts | 207° |
| 2026-05-05 07:23 | 55.61990 | 12.64167 | 23 ft | 34 kts | 205° |
| 2026-05-05 07:23 | 55.61782 | 12.64076 | 25 ft | 11 kts | 176° |
| 2026-05-05 07:23 | 55.61765 | 12.64078 | 25 ft | 0 kts | 176° |
| 2026-05-05 07:24 | 55.61759 | 12.64078 | 25 ft | 1 kts | 176° |
| 2026-05-05 07:24 | 55.61758 | 12.64079 | 25 ft | 0 kts | 176° |
| 2026-05-05 07:24 | 55.61715 | 12.64083 | 25 ft | 12 kts | 177° |
| 2026-05-05 07:25 | 55.61601 | 12.64033 | 25 ft | 21 kts | 216° |
| 2026-05-05 07:25 | 55.61571 | 12.63992 | 25 ft | 0 kts | 220° |
| 2026-05-05 07:26 | 55.61539 | 12.63941 | 24 ft | 30 kts | 221° |
| 2026-05-05 07:26 | 55.61165 | 12.63354 | 24 ft | 110 kts | 221° |
| 2026-05-05 07:26 | 55.60423 | 12.62208 | 137 ft | 162 kts | 225° |
| 2026-05-05 07:27 | 55.59578 | 12.60856 | 773 ft | 168 kts | 227° |
| 2026-05-05 07:27 | 55.58725 | 12.59463 | 1449 ft | 167 kts | 225° |
| 2026-05-05 07:27 | 55.57885 | 12.58069 | 1962 ft | 169 kts | 225° |
| 2026-05-05 07:27 | 55.56964 | 12.56660 | 2385 ft | 185 kts | 224° |
| 2026-05-05 07:28 | 55.56058 | 12.54912 | 2838 ft | 204 kts | 239° |
| 2026-05-05 07:28 | 55.55386 | 12.52638 | 3464 ft | 218 kts | 243° |
| 2026-05-05 07:28 | 55.54561 | 12.50306 | 4144 ft | 232 kts | 241° |
| 2026-05-05 07:28 | 55.53678 | 12.47838 | 4840 ft | 247 kts | 238° |
| 2026-05-05 07:29 | 55.52731 | 12.45245 | 5588 ft | 259 kts | 240° |
| 2026-05-05 07:29 | 55.51777 | 12.42612 | 6604 ft | 260 kts | 240° |
| 2026-05-05 07:29 | 55.50814 | 12.39958 | 7607 ft | 261 kts | 240° |
| 2026-05-05 07:29 | 55.49844 | 12.37290 | 8591 ft | 263 kts | 240° |
| 2026-05-05 07:30 | 55.48857 | 12.34581 | 9581 ft | 264 kts | 239° |
| 2026-05-05 07:30 | 55.46831 | 12.29019 | 11008 ft | 286 kts | 239° |
| 2026-05-05 07:30 | 55.45725 | 12.25988 | 11494 ft | 305 kts | 238° |
| 2026-05-05 07:31 | 55.44537 | 12.22743 | 11956 ft | 324 kts | 238° |
| 2026-05-05 07:31 | 55.43282 | 12.19316 | 12435 ft | 341 kts | 238° |
| 2026-05-05 07:31 | 55.41983 | 12.15775 | 13247 ft | 346 kts | 238° |
| 2026-05-05 07:31 | 55.40684 | 12.12239 | 14185 ft | 347 kts | 238° |
| 2026-05-05 07:32 | 55.39378 | 12.08686 | 14994 ft | 352 kts | 238° |
| 2026-05-05 07:32 | 55.38044 | 12.05064 | 15803 ft | 355 kts | 238° |
| 2026-05-05 07:32 | 55.36686 | 12.01384 | 16602 ft | 358 kts | 238° |
| 2026-05-05 07:32 | 55.35340 | 11.97738 | 17337 ft | 363 kts | 238° |
| 2026-05-05 07:33 | 55.33950 | 11.93985 | 18091 ft | 366 kts | 238° |
| 2026-05-05 07:33 | 55.32568 | 11.90258 | 18813 ft | 369 kts | 238° |
| 2026-05-05 07:33 | 55.31153 | 11.86444 | 18932 ft | 376 kts | 238° |
| 2026-05-05 07:33 | 55.29720 | 11.82591 | 18864 ft | 371 kts | 238° |
| 2026-05-05 07:34 | 55.28314 | 11.78814 | 18945 ft | 370 kts | 238° |
| 2026-05-05 07:34 | 55.26908 | 11.75042 | 18925 ft | 371 kts | 238° |
| 2026-05-05 07:34 | 55.25496 | 11.71259 | 18916 ft | 370 kts | 238° |
| 2026-05-05 07:34 | 55.24079 | 11.67472 | 18934 ft | 369 kts | 238° |
| 2026-05-05 07:35 | 55.22677 | 11.63728 | 18924 ft | 370 kts | 238° |
| 2026-05-05 07:35 | 55.21258 | 11.59945 | 19006 ft | 379 kts | 238° |
| 2026-05-05 07:35 | 55.19817 | 11.56110 | 19904 ft | 376 kts | 238° |
| 2026-05-05 07:35 | 55.18399 | 11.52344 | 20694 ft | 375 kts | 238° |
| 2026-05-05 07:36 | 55.16949 | 11.48495 | 21206 ft | 381 kts | 238° |
| 2026-05-05 07:36 | 55.15474 | 11.44590 | 21836 ft | 384 kts | 238° |
| 2026-05-05 07:36 | 55.14014 | 11.40725 | 22470 ft | 387 kts | 238° |
| 2026-05-05 07:36 | 55.12516 | 11.36771 | 23027 ft | 390 kts | 238° |
| 2026-05-05 07:37 | 55.11034 | 11.32865 | 23591 ft | 393 kts | 237° |
| 2026-05-05 07:37 | 55.09518 | 11.28875 | 24198 ft | 395 kts | 237° |
| 2026-05-05 07:37 | 55.07993 | 11.24867 | 24698 ft | 400 kts | 237° |
| 2026-05-05 07:37 | 55.06438 | 11.20786 | 25242 ft | 403 kts | 237° |
| 2026-05-05 07:38 | 55.04888 | 11.16727 | 25800 ft | 406 kts | 237° |
| 2026-05-05 07:38 | 55.03316 | 11.12617 | 26289 ft | 410 kts | 237° |
| 2026-05-05 07:38 | 55.01748 | 11.08522 | 26785 ft | 414 kts | 237° |
| 2026-05-05 07:38 | 55.00144 | 11.04341 | 27319 ft | 417 kts | 237° |
| 2026-05-05 07:39 | 54.98504 | 11.00073 | 27817 ft | 421 kts | 237° |
| 2026-05-05 07:39 | 54.96870 | 10.95830 | 28295 ft | 424 kts | 237° |
| 2026-05-05 07:39 | 54.95219 | 10.91548 | 28755 ft | 428 kts | 237° |
| 2026-05-05 07:39 | 54.93559 | 10.87249 | 29168 ft | 432 kts | 237° |
| 2026-05-05 07:40 | 54.91874 | 10.82897 | 29642 ft | 434 kts | 237° |
| 2026-05-05 07:40 | 54.90174 | 10.78513 | 30251 ft | 433 kts | 237° |
| 2026-05-05 07:40 | 54.88516 | 10.74242 | 30887 ft | 431 kts | 237° |
| 2026-05-05 07:40 | 54.86819 | 10.69882 | 31403 ft | 431 kts | 237° |
| 2026-05-05 07:41 | 54.85159 | 10.65622 | 31897 ft | 431 kts | 237° |
| 2026-05-05 07:41 | 54.83462 | 10.61273 | 32371 ft | 431 kts | 237° |
| 2026-05-05 07:41 | 54.81782 | 10.56978 | 32848 ft | 430 kts | 237° |
| 2026-05-05 07:41 | 54.80102 | 10.52691 | 33267 ft | 431 kts | 237° |
| 2026-05-05 07:42 | 54.78421 | 10.48406 | 33717 ft | 431 kts | 237° |
| 2026-05-05 07:42 | 54.76727 | 10.44098 | 34170 ft | 430 kts | 237° |
| 2026-05-05 07:42 | 54.75040 | 10.39813 | 34534 ft | 431 kts | 237° |
| 2026-05-05 07:42 | 54.73661 | 10.35278 | 34858 ft | 430 kts | 249° |
| 2026-05-05 07:43 | 54.72755 | 10.30410 | 35166 ft | 430 kts | 256° |
| 2026-05-05 07:43 | 54.72155 | 10.25293 | 35459 ft | 429 kts | 259° |
| 2026-05-05 07:43 | 54.71667 | 10.20278 | 35702 ft | 429 kts | 260° |
| 2026-05-05 07:43 | 54.71209 | 10.15119 | 35940 ft | 430 kts | 261° |
| 2026-05-05 07:44 | 54.70771 | 10.10032 | 36187 ft | 429 kts | 261° |
| 2026-05-05 07:44 | 54.70334 | 10.04905 | 36445 ft | 430 kts | 261° |
| 2026-05-05 07:44 | 54.69904 | 9.99848 | 36753 ft | 430 kts | 261° |
| 2026-05-05 07:44 | 54.69468 | 9.94745 | 37067 ft | 430 kts | 261° |
| 2026-05-05 07:45 | 54.69028 | 9.89619 | 37348 ft | 430 kts | 261° |
| 2026-05-05 07:45 | 54.68584 | 9.84477 | 37632 ft | 430 kts | 261° |
| 2026-05-05 07:45 | 54.68143 | 9.79383 | 37914 ft | 430 kts | 261° |
| 2026-05-05 07:45 | 54.67701 | 9.74320 | 38170 ft | 430 kts | 261° |
| 2026-05-05 07:46 | 54.67250 | 9.69164 | 38426 ft | 430 kts | 261° |
| 2026-05-05 07:46 | 54.66800 | 9.64058 | 38650 ft | 430 kts | 261° |
| 2026-05-05 07:46 | 54.66354 | 9.59004 | 38883 ft | 430 kts | 261° |
| 2026-05-05 07:46 | 54.65900 | 9.53909 | 39110 ft | 430 kts | 261° |
| 2026-05-05 07:47 | 54.65444 | 9.48800 | 39319 ft | 430 kts | 261° |
| 2026-05-05 07:47 | 54.64989 | 9.43732 | 39470 ft | 430 kts | 261° |
| 2026-05-05 07:47 | 54.64214 | 9.38750 | 39576 ft | 431 kts | 246° |
| 2026-05-05 07:47 | 54.62662 | 9.34347 | 39720 ft | 431 kts | 234° |
| 2026-05-05 07:48 | 54.60901 | 9.30153 | 39884 ft | 432 kts | 235° |
| 2026-05-05 07:48 | 54.59138 | 9.25927 | 39957 ft | 432 kts | 235° |
| 2026-05-05 07:48 | 54.55593 | 9.17458 | 39955 ft | 439 kts | 235° |
| 2026-05-05 07:49 | 54.52495 | 9.10078 | 39956 ft | 441 kts | 235° |
| 2026-05-05 07:49 | 54.48901 | 9.01546 | 39958 ft | 440 kts | 235° |
| 2026-05-05 07:50 | 54.45286 | 8.92996 | 39955 ft | 440 kts | 235° |
| 2026-05-05 07:50 | 54.41681 | 8.84495 | 39953 ft | 441 kts | 235° |
| 2026-05-05 07:51 | 54.38070 | 8.76010 | 39954 ft | 441 kts | 235° |
| 2026-05-05 07:51 | 54.34454 | 8.67541 | 39950 ft | 441 kts | 235° |
| 2026-05-05 07:52 | 54.30827 | 8.59077 | 39946 ft | 441 kts | 235° |
| 2026-05-05 07:52 | 54.27188 | 8.50615 | 39948 ft | 442 kts | 235° |
| 2026-05-05 07:53 | 54.23555 | 8.42193 | 39953 ft | 442 kts | 235° |
| 2026-05-05 07:53 | 54.19312 | 8.34588 | 39971 ft | 444 kts | 224° |
| 2026-05-05 07:54 | 54.14804 | 8.27333 | 39961 ft | 444 kts | 225° |
| 2026-05-05 07:54 | 54.10326 | 8.20106 | 39959 ft | 444 kts | 225° |
| 2026-05-05 07:55 | 54.05830 | 8.12852 | 39960 ft | 445 kts | 225° |
| 2026-05-05 07:55 | 54.01326 | 8.05602 | 39961 ft | 446 kts | 225° |
| 2026-05-05 07:56 | 53.96825 | 7.98381 | 39960 ft | 445 kts | 225° |
| 2026-05-05 07:56 | 53.92343 | 7.91216 | 39961 ft | 445 kts | 225° |
| 2026-05-05 07:57 | 53.87848 | 7.84051 | 39961 ft | 444 kts | 225° |
| 2026-05-05 07:57 | 53.83332 | 7.76878 | 39956 ft | 445 kts | 225° |
| 2026-05-05 07:58 | 53.78799 | 7.69699 | 39956 ft | 446 kts | 225° |
| 2026-05-05 07:58 | 53.74269 | 7.62545 | 39948 ft | 446 kts | 225° |
| 2026-05-05 07:59 | 53.69741 | 7.55421 | 39961 ft | 446 kts | 225° |
| 2026-05-05 07:59 | 53.65218 | 7.48322 | 39958 ft | 444 kts | 225° |
| 2026-05-05 08:00 | 53.60659 | 7.41192 | 39959 ft | 445 kts | 225° |
| 2026-05-05 08:00 | 53.56142 | 7.34148 | 39964 ft | 444 kts | 224° |
| 2026-05-05 08:01 | 53.51627 | 7.27128 | 39956 ft | 444 kts | 224° |
| 2026-05-05 08:01 | 53.47081 | 7.20079 | 39973 ft | 446 kts | 224° |
| 2026-05-05 08:02 | 53.42525 | 7.13040 | 39972 ft | 445 kts | 224° |
| 2026-05-05 08:02 | 53.37993 | 7.06058 | 39970 ft | 445 kts | 224° |
| 2026-05-05 08:03 | 53.33425 | 6.98998 | 39961 ft | 446 kts | 226° |
| 2026-05-05 08:03 | 53.29382 | 6.91278 | 39953 ft | 444 kts | 230° |
| 2026-05-05 08:04 | 53.25326 | 6.83544 | 39950 ft | 444 kts | 230° |
| 2026-05-05 08:04 | 53.21242 | 6.75800 | 39946 ft | 443 kts | 230° |
| 2026-05-05 08:05 | 53.17195 | 6.68153 | 39953 ft | 444 kts | 230° |
| 2026-05-05 08:05 | 53.13137 | 6.60425 | 39943 ft | 444 kts | 232° |
| 2026-05-05 08:06 | 53.09202 | 6.52600 | 39940 ft | 444 kts | 231° |
| 2026-05-05 08:06 | 53.05199 | 6.44792 | 39944 ft | 443 kts | 231° |
| 2026-05-05 08:07 | 53.01198 | 6.37025 | 39938 ft | 444 kts | 231° |
| 2026-05-05 08:07 | 52.97169 | 6.29231 | 39937 ft | 445 kts | 230° |
| 2026-05-05 08:08 | 52.93140 | 6.21462 | 39941 ft | 445 kts | 230° |
| 2026-05-05 08:08 | 52.89111 | 6.13717 | 39939 ft | 444 kts | 230° |
| 2026-05-05 08:09 | 52.85080 | 6.05992 | 39943 ft | 445 kts | 230° |
| 2026-05-05 08:09 | 52.81018 | 5.98234 | 39949 ft | 445 kts | 230° |
| 2026-05-05 08:10 | 52.76982 | 5.90546 | 39952 ft | 446 kts | 230° |
| 2026-05-05 08:10 | 52.72924 | 5.82842 | 39954 ft | 446 kts | 230° |
| 2026-05-05 08:11 | 52.68873 | 5.75183 | 39956 ft | 445 kts | 230° |
| 2026-05-05 08:11 | 52.64818 | 5.67542 | 39958 ft | 444 kts | 230° |
| 2026-05-05 08:12 | 52.60744 | 5.59885 | 39956 ft | 445 kts | 230° |
| 2026-05-05 08:12 | 52.56670 | 5.52255 | 39953 ft | 445 kts | 230° |
| 2026-05-05 08:13 | 52.52591 | 5.44637 | 39947 ft | 446 kts | 230° |
| 2026-05-05 08:13 | 52.48502 | 5.37023 | 39939 ft | 446 kts | 230° |
| 2026-05-05 08:14 | 52.44427 | 5.29460 | 39942 ft | 446 kts | 229° |
| 2026-05-05 08:14 | 52.40324 | 5.21860 | 39939 ft | 446 kts | 229° |
| 2026-05-05 08:15 | 52.36243 | 5.14325 | 39938 ft | 446 kts | 229° |
| 2026-05-05 08:15 | 52.31695 | 5.07528 | 39925 ft | 445 kts | 209° |
| 2026-05-05 08:16 | 52.28915 | 5.05447 | 39819 ft | 446 kts | 206° |
| 2026-05-05 08:16 | 52.26114 | 5.03301 | 39571 ft | 443 kts | 207° |
| 2026-05-05 08:16 | 52.23356 | 5.01140 | 39340 ft | 440 kts | 207° |
| 2026-05-05 08:16 | 52.20620 | 4.98977 | 39113 ft | 439 kts | 208° |
| 2026-05-05 08:17 | 52.17883 | 4.96808 | 38884 ft | 438 kts | 208° |
| 2026-05-05 08:17 | 52.15149 | 4.94642 | 38648 ft | 437 kts | 208° |
| 2026-05-05 08:17 | 52.12415 | 4.92477 | 38414 ft | 436 kts | 208° |
| 2026-05-05 08:17 | 52.09716 | 4.90346 | 38176 ft | 435 kts | 208° |
| 2026-05-05 08:18 | 52.07018 | 4.88216 | 37947 ft | 433 kts | 208° |
| 2026-05-05 08:18 | 52.04320 | 4.86088 | 37719 ft | 432 kts | 208° |
| 2026-05-05 08:18 | 52.01607 | 4.83952 | 37487 ft | 430 kts | 208° |
| 2026-05-05 08:18 | 51.98937 | 4.81854 | 37262 ft | 428 kts | 208° |
| 2026-05-05 08:19 | 51.96265 | 4.79756 | 37030 ft | 428 kts | 208° |
| 2026-05-05 08:19 | 51.93603 | 4.77668 | 36796 ft | 425 kts | 207° |
| 2026-05-05 08:19 | 51.90946 | 4.75587 | 36573 ft | 423 kts | 207° |
| 2026-05-05 08:19 | 51.88309 | 4.73526 | 36388 ft | 421 kts | 207° |
| 2026-05-05 08:20 | 51.85674 | 4.71468 | 36237 ft | 421 kts | 207° |
| 2026-05-05 08:20 | 51.83059 | 4.69428 | 36086 ft | 418 kts | 208° |
| 2026-05-05 08:20 | 51.80444 | 4.67388 | 35931 ft | 417 kts | 207° |
| 2026-05-05 08:20 | 51.77829 | 4.65353 | 35778 ft | 415 kts | 207° |
| 2026-05-05 08:21 | 51.75251 | 4.63349 | 35602 ft | 414 kts | 207° |
| 2026-05-05 08:21 | 51.72622 | 4.61305 | 34977 ft | 422 kts | 207° |
| 2026-05-05 08:21 | 51.69980 | 4.59258 | 34263 ft | 422 kts | 207° |
| 2026-05-05 08:21 | 51.67358 | 4.57225 | 33590 ft | 421 kts | 207° |
| 2026-05-05 08:22 | 51.64729 | 4.55195 | 32868 ft | 422 kts | 207° |
| 2026-05-05 08:22 | 51.62064 | 4.53140 | 32061 ft | 425 kts | 207° |
| 2026-05-05 08:22 | 51.59416 | 4.51099 | 31278 ft | 428 kts | 207° |
| 2026-05-05 08:22 | 51.56738 | 4.49039 | 30581 ft | 427 kts | 207° |
| 2026-05-05 08:23 | 51.54077 | 4.46996 | 29983 ft | 425 kts | 207° |
| 2026-05-05 08:23 | 51.51421 | 4.44954 | 29410 ft | 422 kts | 207° |
| 2026-05-05 08:23 | 51.48795 | 4.42942 | 28837 ft | 419 kts | 207° |
| 2026-05-05 08:23 | 51.46181 | 4.40941 | 28228 ft | 417 kts | 207° |
| 2026-05-05 08:24 | 51.43564 | 4.38940 | 27620 ft | 415 kts | 207° |
| 2026-05-05 08:24 | 51.40984 | 4.36971 | 27037 ft | 412 kts | 206° |
| 2026-05-05 08:24 | 51.38427 | 4.35023 | 26519 ft | 408 kts | 206° |
| 2026-05-05 08:24 | 51.35863 | 4.33075 | 26038 ft | 402 kts | 206° |
| 2026-05-05 08:25 | 51.33359 | 4.31172 | 25579 ft | 397 kts | 206° |
| 2026-05-05 08:25 | 51.30904 | 4.29308 | 25102 ft | 392 kts | 205° |
| 2026-05-05 08:25 | 51.28452 | 4.27443 | 24641 ft | 388 kts | 205° |
| 2026-05-05 08:25 | 51.26045 | 4.25617 | 24142 ft | 385 kts | 205° |
| 2026-05-05 08:26 | 51.23620 | 4.23778 | 23621 ft | 382 kts | 205° |
| 2026-05-05 08:26 | 51.21256 | 4.21989 | 23087 ft | 380 kts | 205° |
| 2026-05-05 08:26 | 51.18880 | 4.20191 | 22537 ft | 378 kts | 205° |
| 2026-05-05 08:26 | 51.16517 | 4.18404 | 21994 ft | 375 kts | 205° |
| 2026-05-05 08:27 | 51.14196 | 4.16535 | 21477 ft | 372 kts | 206° |
| 2026-05-05 08:27 | 51.11919 | 4.14697 | 20984 ft | 369 kts | 206° |
| 2026-05-05 08:27 | 51.09651 | 4.12868 | 20486 ft | 365 kts | 206° |
| 2026-05-05 08:27 | 51.07397 | 4.11053 | 19999 ft | 362 kts | 206° |
| 2026-05-05 08:28 | 51.05177 | 4.09268 | 19527 ft | 359 kts | 206° |
| 2026-05-05 08:28 | 51.02958 | 4.07486 | 19052 ft | 358 kts | 206° |
| 2026-05-05 08:28 | 51.00732 | 4.05700 | 18583 ft | 356 kts | 206° |
| 2026-05-05 08:28 | 50.98549 | 4.03950 | 18130 ft | 354 kts | 206° |
| 2026-05-05 08:29 | 50.96366 | 4.02213 | 17683 ft | 352 kts | 204° |
| 2026-05-05 08:29 | 50.94020 | 4.01190 | 17303 ft | 352 kts | 184° |
| 2026-05-05 08:29 | 50.91603 | 4.01538 | 16755 ft | 351 kts | 164° |
| 2026-05-05 08:30 | 50.87615 | 4.05663 | 15729 ft | 343 kts | 138° |
| 2026-05-05 08:30 | 50.85796 | 4.08097 | 15226 ft | 342 kts | 139° |
| 2026-05-05 08:30 | 50.83989 | 4.10441 | 14740 ft | 340 kts | 140° |
| 2026-05-05 08:30 | 50.82153 | 4.12799 | 14245 ft | 338 kts | 140° |
| 2026-05-05 08:31 | 50.80344 | 4.15115 | 13753 ft | 336 kts | 140° |
| 2026-05-05 08:31 | 50.78539 | 4.17424 | 13264 ft | 334 kts | 139° |
| 2026-05-05 08:31 | 50.76747 | 4.19716 | 12771 ft | 333 kts | 139° |
| 2026-05-05 08:31 | 50.74955 | 4.22001 | 12292 ft | 331 kts | 139° |
| 2026-05-05 08:32 | 50.73181 | 4.24264 | 11832 ft | 329 kts | 139° |
| 2026-05-05 08:32 | 50.71421 | 4.26506 | 11376 ft | 326 kts | 139° |
| 2026-05-05 08:32 | 50.69663 | 4.28728 | 10945 ft | 323 kts | 141° |
| 2026-05-05 08:32 | 50.67715 | 4.30511 | 10540 ft | 322 kts | 150° |
| 2026-05-05 08:33 | 50.65763 | 4.32149 | 10179 ft | 319 kts | 149° |
| 2026-05-05 08:33 | 50.63831 | 4.33772 | 10142 ft | 312 kts | 149° |
| 2026-05-05 08:33 | 50.61927 | 4.35370 | 10030 ft | 303 kts | 149° |
| 2026-05-05 08:33 | 50.60101 | 4.36903 | 9926 ft | 292 kts | 149° |
| 2026-05-05 08:34 | 50.58350 | 4.38370 | 9792 ft | 283 kts | 149° |
| 2026-05-05 08:34 | 50.56613 | 4.39829 | 9448 ft | 282 kts | 149° |
| 2026-05-05 08:34 | 50.54891 | 4.41270 | 9154 ft | 279 kts | 149° |
| 2026-05-05 08:34 | 50.53188 | 4.42695 | 8866 ft | 276 kts | 149° |
| 2026-05-05 08:35 | 50.51514 | 4.44096 | 8599 ft | 274 kts | 149° |
| 2026-05-05 08:35 | 50.49836 | 4.45496 | 8321 ft | 271 kts | 149° |
| 2026-05-05 08:35 | 50.48192 | 4.46875 | 8053 ft | 267 kts | 147° |
| 2026-05-05 08:35 | 50.46864 | 4.48784 | 7785 ft | 258 kts | 120° |
| 2026-05-05 08:36 | 50.46241 | 4.51392 | 7526 ft | 251 kts | 99° |
| 2026-05-05 08:36 | 50.45887 | 4.54041 | 7277 ft | 249 kts | 101° |
| 2026-05-05 08:36 | 50.45527 | 4.56660 | 7028 ft | 246 kts | 100° |
| 2026-05-05 08:36 | 50.45168 | 4.59293 | 6773 ft | 244 kts | 100° |
| 2026-05-05 08:37 | 50.44815 | 4.61866 | 6529 ft | 242 kts | 100° |
| 2026-05-05 08:37 | 50.44465 | 4.64427 | 6279 ft | 240 kts | 101° |
| 2026-05-05 08:37 | 50.44114 | 4.66983 | 6037 ft | 239 kts | 101° |
| 2026-05-05 08:37 | 50.43977 | 4.69535 | 5773 ft | 237 kts | 80° |
| 2026-05-05 08:38 | 50.44561 | 4.71951 | 5534 ft | 234 kts | 65° |
| 2026-05-05 08:38 | 50.45234 | 4.74249 | 5276 ft | 234 kts | 66° |
| 2026-05-05 08:38 | 50.45910 | 4.76575 | 5007 ft | 235 kts | 66° |
| 2026-05-05 08:38 | 50.46822 | 4.78636 | 4905 ft | 227 kts | 40° |
| 2026-05-05 08:39 | 50.48240 | 4.79593 | 4824 ft | 227 kts | 9° |
| 2026-05-05 08:39 | 50.49774 | 4.79228 | 4750 ft | 229 kts | 341° |
| 2026-05-05 08:39 | 50.51247 | 4.78258 | 4677 ft | 228 kts | 340° |
| 2026-05-05 08:39 | 50.52658 | 4.77240 | 4579 ft | 223 kts | 330° |
| 2026-05-05 08:40 | 50.53683 | 4.75448 | 4500 ft | 225 kts | 295° |
| 2026-05-05 08:40 | 50.53936 | 4.72996 | 4194 ft | 236 kts | 263° |
| 2026-05-05 08:40 | 50.53367 | 4.70603 | 3896 ft | 238 kts | 242° |
| 2026-05-05 08:40 | 50.52629 | 4.68222 | 3537 ft | 244 kts | 245° |
| 2026-05-05 08:41 | 50.51910 | 4.65781 | 3185 ft | 250 kts | 246° |
| 2026-05-05 08:41 | 50.51207 | 4.63300 | 2853 ft | 250 kts | 247° |
| 2026-05-05 08:41 | 50.50524 | 4.60924 | 2511 ft | 228 kts | 246° |
| 2026-05-05 08:41 | 50.49900 | 4.58776 | 2217 ft | 203 kts | 247° |
| 2026-05-05 08:42 | 50.49353 | 4.56883 | 2012 ft | 177 kts | 248° |
| 2026-05-05 08:42 | 50.48861 | 4.55174 | 1782 ft | 169 kts | 248° |
| 2026-05-05 08:42 | 50.48378 | 4.53507 | 1533 ft | 167 kts | 248° |
| 2026-05-05 08:42 | 50.47898 | 4.51855 | 1299 ft | 165 kts | 248° |
| 2026-05-05 08:43 | 50.47425 | 4.50225 | 1073 ft | 164 kts | 248° |
| 2026-05-05 08:43 | 50.46959 | 4.48604 | 900 ft | 163 kts | 248° |
| 2026-05-05 08:43 | 50.46480 | 4.46975 | 642 ft | 158 kts | 248° |
| 2026-05-05 08:43 | 50.46040 | 4.45440 | 609 ft | 139 kts | 243° |
| 2026-05-05 08:44 | 50.45696 | 4.44281 | 609 ft | 90 kts | 249° |
| 2026-05-05 08:44 | 50.45540 | 4.43762 | 610 ft | 0 kts | 241° |
| 2026-05-05 08:44 | 50.45513 | 4.43727 | 609 ft | 7 kts | 194° |
| 2026-05-05 08:44 | 50.45507 | 4.43726 | 609 ft | 0 kts | 184° |
| 2026-05-05 08:45 | 50.45452 | 4.43792 | 610 ft | 21 kts | 103° |
| 2026-05-05 08:45 | 50.45520 | 4.44078 | 611 ft | 35 kts | 65° |
| 2026-05-05 08:46 | 50.45609 | 4.44379 | 608 ft | 26 kts | 66° |
| 2026-05-05 08:46 | 50.45693 | 4.44680 | 604 ft | 34 kts | 66° |
| 2026-05-05 08:46 | 50.45800 | 4.45048 | 605 ft | 39 kts | 65° |
| 2026-05-05 08:46 | 50.45888 | 4.45351 | 608 ft | 28 kts | 67° |
| 2026-05-05 08:47 | 50.45969 | 4.45636 | 610 ft | 28 kts | 66° |
| 2026-05-05 08:47 | 50.45996 | 4.45730 | 610 ft | 0 kts | 73° |
| 2026-05-05 08:47 | 50.45962 | 4.45737 | 609 ft | 15 kts | 236° |
| 2026-05-05 08:47 | 50.45946 | 4.45559 | 608 ft | 0 kts | 288° |
| 2026-05-05 08:48 | 50.45948 | 4.45547 | 608 ft | 0 kts | 288° |
| 2026-05-05 08:48 | 50.45949 | 4.45546 | 608 ft | 0 kts | 289° |
| 2026-05-05 08:48 | 50.45995 | 4.45483 | 608 ft | 17 kts | 343° |
| 2026-05-05 08:49 | 50.46095 | 4.45650 | 611 ft | 29 kts | 66° |
| 2026-05-05 08:49 | 50.46203 | 4.46024 | 603 ft | 44 kts | 65° |
| 2026-05-05 08:49 | 50.46354 | 4.46103 | 603 ft | 15 kts | 355° |
| 2026-05-05 08:49 | 50.46441 | 4.46232 | 599 ft | 22 kts | 64° |
| 2026-05-05 08:50 | 50.46508 | 4.46458 | 593 ft | 25 kts | 65° |
| 2026-05-05 08:50 | 50.46588 | 4.46720 | 586 ft | 26 kts | 66° |
| 2026-05-05 08:50 | 50.46598 | 4.46758 | 585 ft | 0 kts | 66° |
| 2026-05-05 08:53 | 50.46627 | 4.46788 | 585 ft | 10 kts | 11° |
| 2026-05-05 08:53 | 50.46676 | 4.46720 | 587 ft | 11 kts | 268° |
| 2026-05-05 08:53 | 50.46653 | 4.46570 | 592 ft | 15 kts | 274° |
| 2026-05-05 08:54 | 50.46660 | 4.46470 | 595 ft | 0 kts | 275° |
| 2026-05-05 08:54 | 50.46660 | 4.46462 | 595 ft | 3 kts | 275° |
| 2026-05-05 08:54 | 50.46666 | 4.46433 | 596 ft | 4 kts | 303° |
| 2026-05-05 08:54 | 50.46671 | 4.46423 | 596 ft | 0 kts | 311° |
| 2026-05-05 08:55 | 50.46665 | 4.46436 | 596 ft | 0 kts | 285° |
| 2026-05-05 08:55 | 50.46669 | 4.46425 | 596 ft | 0 kts | 302° |
| 2026-05-05 08:55 | 50.46663 | 4.46480 | 595 ft | 2 kts | 272° |
| 2026-05-05 08:56 | 50.46668 | 4.46469 | 595 ft | 4 kts | 299° |
| 2026-05-05 08:56 | 50.46675 | 4.46446 | 596 ft | 3 kts | 292° |
| 2026-05-05 08:56 | 50.46679 | 4.46431 | 596 ft | 0 kts | 291° |
| 2026-05-05 08:56 | 50.46679 | 4.46430 | 596 ft | 0 kts | 291° |